createdAt,value
2023-04-16T00:00:33.320Z,11.1
2023-04-16T00:04:39.936Z,10.7
2023-04-16T00:06:45.692Z,11.2
2023-04-16T00:08:54.563Z,11.1
2023-04-16T00:11:00.398Z,10.3
2023-04-16T00:13:06.178Z,11
2023-04-16T00:15:11.977Z,12.4
2023-04-16T00:17:17.821Z,11.9
2023-04-16T00:19:23.590Z,15.1
2023-04-16T00:21:29.394Z,9.8
2023-04-16T00:23:38.262Z,11.8
2023-04-16T00:25:44.091Z,11.6
2023-04-16T00:32:01.556Z,11.6
2023-04-16T00:36:13.079Z,11.6
2023-04-16T00:38:21.974Z,12
2023-04-16T00:42:33.588Z,13
2023-04-16T00:43:38.018Z,13.1
2023-04-16T00:45:43.853Z,12.5
2023-04-16T00:47:49.720Z,14.2
2023-04-16T00:49:55.449Z,12.3
2023-04-16T00:52:04.330Z,12
2023-04-16T00:54:10.135Z,12.1
2023-04-16T00:56:17.519Z,14.7
2023-04-16T00:58:21.743Z,13.3
2023-04-16T01:00:29.003Z,13.5
2023-04-16T01:02:33.481Z,14.8
2023-04-16T01:04:39.190Z,15.7
2023-04-16T01:06:48.085Z,13.3
2023-04-16T01:08:53.913Z,15.1
2023-04-16T01:23:37.648Z,14.2
2023-04-16T01:38:21.429Z,16.8
2023-04-16T01:40:27.263Z,14.9
2023-04-16T01:41:31.674Z,20.1
2023-04-16T01:43:40.039Z,13.6
2023-04-16T01:45:43.294Z,14.8
2023-04-16T01:47:49.164Z,15.4
2023-04-16T01:52:03.755Z,16.3
2023-04-16T01:54:11.173Z,19
2023-04-16T01:58:22.771Z,19.8
2023-04-16T02:00:30.542Z,17
2023-04-16T02:02:34.481Z,15.8
2023-04-16T02:04:43.301Z,16.3
2023-04-16T02:06:49.070Z,16.6
2023-04-16T02:08:54.893Z,17.9
2023-04-16T02:11:00.691Z,18.4
2023-04-16T02:15:12.329Z,18.6
2023-04-16T02:17:18.223Z,18.2
2023-04-16T02:19:26.981Z,17.9
2023-04-16T02:21:32.794Z,18.1
2023-04-16T02:23:38.597Z,15.3
2023-04-16T02:25:44.406Z,16.5
2023-04-16T02:32:01.860Z,17.7
2023-04-16T02:38:22.330Z,19.4
2023-04-16T02:45:00.220Z,20.3
2023-04-16T02:47:09.085Z,20.5
2023-04-16T02:49:14.892Z,20.4
2023-04-16T02:51:20.706Z,19
2023-04-16T02:53:26.525Z,19.5
2023-04-16T02:55:32.339Z,16.6
2023-04-16T02:57:38.143Z,18.9
2023-04-16T02:59:43.942Z,17.1
2023-04-16T03:01:52.943Z,18.3
2023-04-16T03:06:04.482Z,19.9
2023-04-16T03:10:16.036Z,18.5
2023-04-16T03:14:27.679Z,17.9
2023-04-16T03:16:36.571Z,21.4
2023-04-16T03:18:42.371Z,19.7
2023-04-16T03:20:48.177Z,20.5
2023-04-16T03:22:54.011Z,21.2
2023-04-16T03:24:59.802Z,16.9
2023-04-16T03:27:05.651Z,19.2
2023-04-16T03:29:11.610Z,19.3
2023-04-16T03:31:20.405Z,23.4
2023-04-16T03:33:26.157Z,25.6
2023-04-16T03:36:36.388Z,20.2
2023-04-16T03:38:42.206Z,21.8
2023-04-16T03:40:48.028Z,20.4
2023-04-16T03:42:53.839Z,21
2023-04-16T03:45:02.739Z,19.7
2023-04-16T03:47:08.547Z,21.7
2023-04-16T03:49:14.358Z,20.1
2023-04-16T03:51:20.152Z,20.7
2023-04-16T03:53:25.968Z,20
2023-04-16T03:55:32.402Z,25.5
2023-04-16T04:10:15.548Z,22.9
2023-04-16T04:12:21.348Z,22.4
2023-04-16T04:14:30.230Z,21.7
2023-04-16T04:16:36.061Z,25
2023-04-16T04:18:43.306Z,25.2
2023-04-16T04:33:25.597Z,20.4
2023-04-16T04:34:30.063Z,19.4
2023-04-16T04:36:35.905Z,21.6
2023-04-16T04:38:41.694Z,21.4
2023-04-16T04:40:47.766Z,19.4
2023-04-16T04:42:56.375Z,22.8
2023-04-16T04:45:02.159Z,21.4
2023-04-16T04:49:13.792Z,23.6
2023-04-16T04:51:19.603Z,21.7
2023-04-16T04:57:40.079Z,25.9
2023-04-16T04:59:45.897Z,19.3
2023-04-16T05:01:51.757Z,21.9
2023-04-16T05:03:57.607Z,24.4
2023-04-16T05:06:03.305Z,22.6
2023-04-16T05:08:09.103Z,22.6
2023-04-16T05:10:14.920Z,22.6
2023-04-16T05:14:29.594Z,21.6
2023-04-16T05:16:35.407Z,23.8
2023-04-16T05:18:41.204Z,24.3
2023-04-16T05:20:47.010Z,25.8
2023-04-16T05:29:13.332Z,24
2023-04-16T05:32:23.577Z,26
2023-04-16T05:34:29.369Z,22.6
2023-04-16T05:36:35.139Z,23.9
2023-04-16T05:38:40.995Z,24.5
2023-04-16T05:42:55.662Z,22.5
2023-04-16T05:47:07.302Z,25
2023-04-16T05:49:13.097Z,24.7
2023-04-16T05:51:18.913Z,25.7
2023-04-16T05:53:24.702Z,25.3
2023-04-16T06:01:51.082Z,24.7
2023-04-16T06:06:02.764Z,23
2023-04-16T06:08:08.496Z,20.7
2023-04-16T06:10:17.379Z,20.4
2023-04-16T06:18:40.526Z,20.8
2023-04-16T06:20:46.343Z,23.3
2023-04-16T06:25:01.015Z,22.9
2023-04-16T06:29:12.657Z,22.7
2023-04-16T06:39:58.918Z,21.6
2023-04-16T06:42:04.739Z,21.2
2023-04-16T06:48:22.139Z,22.7
2023-04-16T06:50:27.953Z,21.1
2023-04-16T06:52:36.865Z,24.3
2023-04-16T06:54:42.678Z,27
2023-04-16T06:56:48.486Z,22.9
2023-04-16T06:58:54.297Z,22.4
2023-04-16T07:01:00.201Z,25.6
2023-04-16T07:07:20.645Z,24.7
2023-04-16T07:09:26.457Z,24.5
2023-04-16T07:11:32.280Z,20.5
2023-04-16T07:13:38.109Z,26.5
2023-04-16T07:15:43.928Z,23.2
2023-04-16T07:17:49.806Z,22.3
2023-04-16T07:19:55.544Z,25.8
2023-04-16T07:22:04.464Z,26.2
2023-04-16T07:24:10.298Z,25.3
2023-04-16T07:26:16.114Z,25.4
2023-04-16T07:27:20.640Z,29
2023-04-16T07:33:38.144Z,23.7
2023-04-16T07:37:52.856Z,25.6
2023-04-16T07:42:04.524Z,22.6
2023-04-16T07:44:10.357Z,29.3
2023-04-16T07:46:16.268Z,29.6
2023-04-16T07:48:21.957Z,27.3
2023-04-16T07:50:33.533Z,25.8
2023-04-16T07:52:36.703Z,28.2
2023-04-16T07:54:42.541Z,26.6
2023-04-16T07:58:55.718Z,26
2023-04-16T08:01:01.561Z,25.7
2023-04-16T08:03:07.516Z,28.6
2023-04-16T08:05:16.423Z,28.1
2023-04-16T08:07:22.095Z,27.6
2023-04-16T08:09:27.938Z,26
2023-04-16T08:11:33.751Z,23.3
2023-04-16T08:13:39.589Z,25.9
2023-04-16T08:15:45.409Z,25.4
2023-04-16T08:22:05.951Z,25.9
2023-04-16T08:24:11.780Z,28.2
2023-04-16T08:25:16.238Z,23.3
2023-04-16T08:27:22.088Z,27.4
2023-04-16T08:29:27.908Z,23.9
2023-04-16T08:31:33.806Z,25
2023-04-16T08:33:42.622Z,27.7
2023-04-16T08:37:54.296Z,25.2
2023-04-16T08:40:00.174Z,20.1
2023-04-16T08:48:26.311Z,22.7
2023-04-16T08:56:49.566Z,25.6
2023-04-16T08:58:55.427Z,23.2
2023-04-16T09:01:01.367Z,21.1
2023-04-16T09:15:44.568Z,21.1
2023-04-16T09:17:53.298Z,19.1
2023-04-16T09:19:59.010Z,17.7
2023-04-16T09:22:04.784Z,22
2023-04-16T09:23:09.120Z,19.8
2023-04-16T09:25:14.926Z,19.7
2023-04-16T09:27:20.663Z,17.6
2023-04-16T09:29:26.412Z,22.2
2023-04-16T09:46:18.532Z,20.3
2023-04-16T09:48:24.232Z,18.2
2023-04-16T09:50:32.118Z,15.2
2023-04-16T09:52:35.798Z,17.5
2023-04-16T09:54:41.555Z,16.3
2023-04-16T09:56:47.318Z,15.7
2023-04-16T09:58:53.106Z,17.4
2023-04-16T10:01:01.884Z,17.6
2023-04-16T10:03:07.931Z,15.7
2023-04-16T10:05:13.402Z,16.8
2023-04-16T10:07:19.162Z,18.2
2023-04-16T10:09:24.923Z,14.7
2023-04-16T10:13:36.502Z,13.2
2023-04-16T10:17:51.161Z,14.1
2023-04-16T10:19:56.808Z,15.5
2023-04-16T10:22:28.097Z,16.1
2023-04-16T10:24:33.887Z,16.7
2023-04-16T10:28:48.413Z,15.9
2023-04-16T10:30:54.244Z,14.5
2023-04-16T10:33:00.794Z,13.8
2023-04-16T10:35:05.793Z,27.3
2023-04-16T10:37:11.572Z,16.5
2023-04-16T10:39:17.556Z,14
2023-04-16T10:41:23.162Z,13.3
2023-04-16T10:43:31.927Z,15.6
2023-04-16T10:47:43.561Z,15.2
2023-04-16T10:49:49.267Z,12.3
2023-04-16T10:51:55.066Z,12.9
2023-04-16T10:54:00.852Z,22.5
2023-04-16T10:56:06.624Z,21.5
2023-04-16T10:58:15.392Z,19.1
2023-04-16T11:00:21.186Z,16.8
2023-04-16T11:02:27.892Z,17.4
2023-04-16T11:04:32.860Z,17.1
2023-04-16T11:06:38.541Z,15.7
2023-04-16T11:08:54.105Z,14.3
2023-04-16T11:10:50.056Z,12.8
2023-04-16T11:12:58.814Z,14.2
2023-04-16T11:15:04.614Z,14.9
2023-04-16T11:17:10.390Z,11.7
2023-04-16T11:18:14.763Z,14.5
2023-04-16T11:20:21.051Z,11.5
2023-04-16T11:24:32.021Z,10.5
2023-04-16T11:26:40.734Z,14.3
2023-04-16T11:28:46.549Z,13.3
2023-04-16T11:30:52.350Z,13.9
2023-04-16T11:32:58.193Z,12.8
2023-04-16T11:35:03.916Z,11.9
2023-04-16T11:37:09.677Z,11.1
2023-04-16T11:39:15.491Z,13.1
2023-04-16T11:41:24.233Z,19.5
2023-04-16T11:43:30.028Z,10.8
2023-04-16T11:45:35.845Z,12.5
2023-04-16T11:47:41.648Z,12.1
2023-04-16T11:49:47.405Z,10.5
2023-04-16T11:51:53.850Z,13.4
2023-04-16T11:53:59.617Z,11.7
2023-04-16T11:56:08.385Z,13.1
2023-04-16T11:58:14.170Z,12.9
2023-04-16T12:00:23.094Z,12.4
2023-04-16T12:02:25.921Z,13.2
2023-04-16T12:04:31.614Z,12.4
2023-04-16T12:06:37.354Z,11.1
2023-04-16T12:08:43.110Z,13.3
2023-04-16T12:16:07.895Z,13.4
2023-04-16T12:18:13.650Z,12.9
2023-04-16T12:20:19.418Z,14.7
2023-04-16T12:22:25.215Z,13
2023-04-16T12:24:33.957Z,13.3
2023-04-16T12:26:33.714Z,13
2023-04-16T12:28:39.515Z,12.1
2023-04-16T12:32:51.106Z,12.7
2023-04-16T12:34:56.873Z,11.8
2023-04-16T12:37:02.684Z,12.5
2023-04-16T12:39:11.622Z,13.4
2023-04-16T12:41:17.226Z,12.2
2023-04-16T12:45:28.894Z,13
2023-04-16T12:47:34.694Z,11.1
2023-04-16T12:53:54.874Z,11.3
2023-04-16T12:56:00.667Z,14.5
2023-04-16T13:00:12.255Z,12.4
2023-04-16T13:06:29.581Z,13.8
2023-04-16T13:08:38.368Z,12
2023-04-16T13:13:54.299Z,15
2023-04-16T13:16:00.174Z,10.7
2023-04-16T13:22:20.438Z,14.1
2023-04-16T13:26:31.992Z,13.8
2023-04-16T13:28:37.807Z,11
2023-04-16T13:32:49.468Z,13
2023-04-16T13:34:55.231Z,13
2023-04-16T13:41:15.576Z,12.2
2023-04-16T13:43:21.367Z,11
2023-04-16T13:45:27.173Z,9.5
2023-04-16T13:47:32.990Z,11.1
2023-04-16T13:49:38.707Z,11.5
2023-04-16T13:51:47.480Z,11.7
2023-04-16T13:53:53.267Z,9.6
2023-04-16T13:55:59.072Z,9.9
2023-04-16T13:58:04.855Z,11.6
2023-04-16T14:00:13.359Z,11.2
2023-04-16T14:02:18.049Z,12.1
2023-04-16T14:04:23.901Z,12.8
2023-04-16T14:06:32.576Z,11
2023-04-16T14:08:38.355Z,12.2
2023-04-16T14:13:15.477Z,12.7
2023-04-16T14:15:21.290Z,11.7
2023-04-16T14:19:35.824Z,11.1
2023-04-16T14:21:41.595Z,10.9
2023-04-16T14:23:47.382Z,11.2
2023-04-16T14:25:53.182Z,12.2
2023-04-16T14:27:58.989Z,11
2023-04-16T14:30:04.764Z,12.3
2023-04-16T14:32:10.627Z,10.8
2023-04-16T14:34:19.317Z,10.5
2023-04-16T14:36:25.148Z,15.6
2023-04-16T14:38:30.889Z,11.4
2023-04-16T14:46:54.040Z,15
2023-04-16T14:49:02.817Z,9.8
2023-04-16T14:51:08.590Z,11.9
2023-04-16T15:21:39.916Z,12.2
2023-04-16T15:25:51.451Z,14.2
2023-04-16T15:27:57.256Z,19.3
2023-04-16T15:34:17.598Z,11.5
2023-04-16T15:38:29.103Z,12.4
2023-04-16T15:49:01.012Z,12.9
2023-04-16T15:51:06.811Z,12.3
2023-04-16T15:57:24.167Z,13.2
2023-04-16T15:59:29.953Z,12.9
2023-04-16T16:01:38.743Z,11.7
2023-04-16T16:03:44.599Z,11.4
2023-04-16T16:06:54.914Z,11.9
2023-04-16T16:09:00.674Z,12.6
2023-04-16T16:11:06.440Z,14.1
2023-04-16T16:13:12.264Z,13.5
2023-04-16T16:19:32.553Z,13.3
2023-04-16T16:21:38.334Z,12.4
2023-04-16T16:23:44.107Z,12.3
2023-04-16T16:25:49.900Z,13.9
2023-04-16T16:27:55.678Z,11.9
2023-04-16T16:30:04.444Z,12.2
2023-04-16T16:32:10.223Z,11.6
2023-04-16T16:34:20.796Z,12.4
2023-04-16T16:36:21.787Z,12.4
2023-04-16T16:38:27.568Z,14.8
2023-04-16T16:40:33.999Z,12.9
2023-04-16T16:48:59.432Z,15.4
2023-04-16T16:55:18.680Z,12.4
2023-04-16T16:57:22.527Z,12.5
2023-04-16T16:59:31.251Z,12.9
2023-04-16T17:01:37.090Z,12.4
2023-04-16T17:03:42.964Z,12.5
2023-04-16T17:04:47.198Z,13.5
2023-04-16T17:06:53.013Z,13.5
2023-04-16T17:08:58.773Z,14.6
2023-04-16T17:11:04.553Z,20.5
2023-04-16T17:13:13.322Z,20.5
2023-04-16T17:15:21.485Z,14.7
2023-04-16T17:17:24.891Z,13.4
2023-04-16T17:19:30.642Z,14.3
2023-04-16T17:23:42.182Z,13.5
2023-04-16T17:38:25.541Z,14
2023-04-16T17:40:31.331Z,16.2
2023-04-16T17:42:40.051Z,18.4
2023-04-16T17:44:45.837Z,13.6
2023-04-16T17:46:51.604Z,16.5
2023-04-16T17:48:57.351Z,13.7
2023-04-16T17:51:03.108Z,14.1
2023-04-16T17:53:08.885Z,15.1
2023-04-16T17:55:14.642Z,16.4
2023-04-16T17:57:23.398Z,15.8
2023-04-16T17:59:29.167Z,18.7
2023-04-16T18:01:34.969Z,18.3
2023-04-16T18:04:06.399Z,31.7
2023-04-16T18:08:17.817Z,24.9
2023-04-16T18:10:26.521Z,19.6
2023-04-16T18:16:43.815Z,16.9
2023-04-16T18:18:49.597Z,18.6
2023-04-16T18:23:01.114Z,18.4
2023-04-16T18:25:09.851Z,17.1
2023-04-16T18:27:15.623Z,16.4
2023-04-16T18:31:27.183Z,19
2023-04-16T18:35:38.663Z,30.7
2023-04-16T18:37:44.413Z,40.5
2023-04-16T18:41:58.913Z,22
2023-04-16T18:44:04.686Z,20.9
2023-04-16T18:46:10.501Z,18.3
2023-04-16T18:48:16.182Z,17.4
2023-04-16T18:50:21.959Z,22.9
2023-04-16T18:52:27.717Z,21.9
2023-04-16T18:54:36.439Z,22.4
2023-04-16T18:56:42.178Z,19.2
2023-04-16T18:59:52.313Z,17.2
2023-04-16T19:01:58.125Z,18
2023-04-16T19:04:03.842Z,16.9
2023-04-16T19:06:09.595Z,19.8
2023-04-16T19:12:29.874Z,19.6
2023-04-16T19:16:41.391Z,18.5
2023-04-16T19:18:47.123Z,18.3
2023-04-16T19:20:52.872Z,15
2023-04-16T19:23:01.603Z,18.3
2023-04-16T19:27:13.132Z,16.5
2023-04-16T19:29:18.871Z,15.6
2023-04-16T19:31:24.642Z,16.5
2023-04-16T19:33:30.405Z,30.8
2023-04-16T19:35:36.172Z,21.3
2023-04-16T19:39:50.629Z,21.1
2023-04-16T19:44:02.168Z,18.7
2023-04-16T19:46:08.007Z,18.9
2023-04-16T19:54:33.903Z,22
2023-04-16T19:56:39.677Z,18.9
2023-04-16T19:59:49.783Z,18.5
2023-04-16T20:01:57.176Z,17.3
2023-04-16T20:04:02.934Z,17.6
2023-04-16T20:06:11.593Z,19.5
2023-04-16T20:08:17.361Z,19
2023-04-16T20:12:28.914Z,24.2
2023-04-16T20:14:34.756Z,25.4
2023-04-16T20:16:40.577Z,20.6
2023-04-16T20:18:46.252Z,20.2
2023-04-16T20:27:12.329Z,17
2023-04-16T20:29:18.155Z,17.7
2023-04-16T20:31:24.075Z,18.9
2023-04-16T20:41:55.950Z,17.2
2023-04-16T20:46:07.460Z,18
2023-04-16T20:48:13.280Z,19.7
2023-04-16T20:55:38.194Z,17.6
2023-04-16T20:59:49.700Z,17.6
2023-04-16T21:01:55.484Z,19.9
2023-04-16T21:04:04.567Z,16.3
2023-04-16T21:06:10.171Z,18.8
2023-04-16T21:08:16.019Z,18.2
2023-04-16T21:10:21.854Z,17
2023-04-16T21:12:27.700Z,21
2023-04-16T21:14:34.183Z,18.4
2023-04-16T21:16:39.363Z,20.3
2023-04-16T21:18:48.273Z,18.3
2023-04-16T21:20:54.107Z,20.5
2023-04-16T21:22:59.945Z,18.6
2023-04-16T21:25:05.778Z,19.5
2023-04-16T21:27:11.619Z,19.7
2023-04-16T21:29:17.435Z,19.3
2023-04-16T21:31:23.275Z,19.6
2023-04-16T21:33:32.227Z,20
2023-04-16T21:35:38.020Z,22
2023-04-16T21:37:43.835Z,19.8
2023-04-16T21:39:49.644Z,21.1
2023-04-16T21:41:55.497Z,18.5
2023-04-16T21:44:01.327Z,21.1
2023-04-16T21:46:07.164Z,20.5
2023-04-16T21:54:59.276Z,24
2023-04-16T21:57:05.109Z,22.2
2023-04-16T21:59:11.184Z,19.7
2023-04-16T22:01:19.895Z,19.7
2023-04-16T22:03:25.760Z,18.5
2023-04-16T22:05:31.500Z,20.8
2023-04-16T22:07:37.335Z,20.7
2023-04-16T22:09:43.188Z,20.2
2023-04-16T22:11:48.999Z,21.1
2023-04-16T22:13:54.817Z,21.7
2023-04-16T22:16:03.767Z,22.1
2023-04-16T22:18:09.575Z,22.6
2023-04-16T22:22:21.897Z,19.8
2023-04-16T22:24:27.020Z,19.2
2023-04-16T22:26:32.839Z,24.8
2023-04-16T22:28:38.632Z,21.9
2023-04-16T22:32:53.396Z,22.9
2023-04-16T22:34:59.180Z,22.1
2023-04-16T22:37:05.402Z,22.4
2023-04-16T22:39:11.139Z,22.2
2023-04-16T22:41:16.630Z,24.4
2023-04-16T22:43:22.441Z,24.1
2023-04-16T22:49:43.022Z,23.3
2023-04-16T22:50:47.457Z,23.9
2023-04-16T22:52:53.309Z,23.7
2023-04-16T22:54:59.093Z,21.3
2023-04-16T22:57:04.921Z,22.4
2023-04-16T23:03:25.503Z,22.4
2023-04-16T23:09:42.849Z,26.1
2023-04-16T23:11:48.677Z,21.8
2023-04-16T23:13:57.566Z,24.7
2023-04-16T23:16:03.436Z,21.9
2023-04-16T23:18:09.221Z,24
2023-04-16T23:20:14.998Z,24
2023-04-16T23:22:20.794Z,23.8
2023-04-16T23:24:26.601Z,21
2023-04-16T23:26:32.402Z,24.2
2023-04-16T23:28:41.285Z,26.4
2023-04-16T23:34:58.704Z,21.1
2023-04-16T23:45:30.885Z,24.1
2023-04-16T23:47:36.642Z,21.5
2023-04-16T23:48:41.498Z,22.4
2023-04-16T23:50:46.896Z,25.3
2023-04-16T23:52:52.699Z,21.8
2023-04-16T23:54:58.476Z,21.3
